Observations for Trim Patrick St
| Time | AQI | Temp °C | Hum % | Pres Pa | CO μg/m³ | H₂S μg/m³ | NO μg/m³ | NO₂ μg/m³ | O₃ μg/m³ | SO₂ μg/m³ | PM1 μg/m³ | PM2.5 μg/m³ | PM10 μg/m³ |
|---|---|---|---|---|---|---|---|---|---|---|---|---|---|
| Monday 3 August 2026 | |||||||||||||
| 02:42 | 1 | 15 | 83 | 38,460 | 0.22 | 0 | 1.88 | 20 | 31.06 | 0 | 8 | 11.25 | 12.38 |
| 02:39 | 1 | 14.9 | 83 | 38,460 | 0.24 | 0 | 1.89 | 24.18 | 31.64 | 0 | 4.57 | 9.17 | 10.09 |
| 02:38 | 1 | 14.9 | 83 | 38,460 | 0.22 | 0 | 1.93 | 23.68 | 30.92 | 0 | 5.43 | 9.17 | 10.09 |
| 02:37 | 1 | 14.9 | 83 | 38,460 | 0.22 | 0 | 1.92 | 19.71 | 22.92 | 0 | 6.29 | 9.17 | 10.09 |
| 02:36 | 1 | 14.9 | 83 | 38,460 | 0.22 | 0 | 1.97 | 22.65 | 27.6 | 0 | 5.43 | 9.87 | 10.85 |
| 02:35 | 1 | 14.9 | 83 | 38,460 | 0.23 | 0.36 | 1.97 | 24.43 | 35.45 | 0 | 5.43 | 9.87 | 10.85 |
| 02:34 | 1 | 14.9 | 83 | 38,460 | 0.22 | 0.15 | 1.97 | 27.04 | 30.78 | 0 | 6.29 | 9.87 | 10.85 |
| 02:33 | 1 | 14.9 | 83 | 38,460 | 0.24 | 0 | 1.93 | 18.05 | 26.43 | 0 | 7.14 | 10.56 | 11.61 |
| 02:32 | 1 | 14.9 | 83 | 38,460 | 0.22 | 0 | 1.93 | 23.44 | 32.85 | 0 | 6.29 | 9.87 | 10.85 |
| 02:31 | 1 | 14.9 | 83 | 38,460 | 0.22 | 0 | 1.89 | 17.06 | 21.53 | 0 | 6.29 | 9.87 | 10.85 |
| 02:30 | 1 | 14.9 | 83 | 38,460 | 0.22 | 0 | 1.77 | 23.18 | 33.22 | 0 | 8 | 10.56 | 11.61 |
| 02:29 | 1 | 14.9 | 83 | 38,460 | 0.22 | 0 | 1.77 | 22.4 | 28.66 | 0 | 7.14 | 10.56 | 11.61 |
| 02:28 | 1 | 14.9 | 83 | 38,460 | 0.22 | 0 | 1.71 | 20.34 | 28.53 | 0 | 7.14 | 9.87 | 10.85 |
| 02:27 | 1 | 14.9 | 83 | 38,460 | 0.22 | 0 | 1.67 | 16.46 | 18.8 | 0 | 7.14 | 10.55 | 11.61 |
| 02:26 | 1 | 14.9 | 83 | 38,460 | 0.22 | 0.26 | 1.61 | 24.95 | 33.91 | 0 | 7.14 | 11.24 | 12.37 |
| 02:25 | 1 | 14.9 | 83 | 38,460 | 0.23 | 0.44 | 1.71 | 26.37 | 33.12 | 0 | 8 | 11.24 | 12.37 |
| 02:24 | 1 | 14.9 | 83 | 38,460 | 0.22 | 0 | 1.7 | 16.46 | 17.85 | 0 | 8 | 11.94 | 13.13 |
| 02:23 | 1 | 14.9 | 83 | 38,460 | 0.22 | 0.52 | 1.81 | 28.02 | 40.54 | 0 | 8 | 12.63 | 13.89 |
| 02:22 | 1 | 14.9 | 83 | 38,460 | 0.21 | 0.26 | 1.73 | 22.43 | 28.6 | 0 | 5.43 | 9.16 | 10.08 |
| 02:21 | 1 | 14.9 | 83 | 38,460 | 0.23 | 0.49 | 1.87 | 24.96 | 32.18 | 0 | 6.29 | 10.55 | 11.61 |